Time;durP1;ratioP1;P1;durP2;ratioP2;P2;SDS_P1;SDS_P2;PMS_P1;PMS_P2;Temp;Humidity;BMP_temperature;BMP_pressure;BME280_temperature;BME280_humidity;BME280_pressure;Samples;Min_cycle;Max_cycle;Signal;HPM_P1;HPM_P2
2023/07/19 00:02:10;;;;;;;11.70;4.15;;;24.30;53.60;;;;;;5072649;28;20025;-41
2023/07/19 00:04:36;;;;;;;7.13;3.85;;;24.20;53.50;;;;;;5072476;28;20031;-44
2023/07/19 00:07:02;;;;;;;11.43;4.03;;;24.30;53.60;;;;;;5054776;28;20049;-40
2023/07/19 00:09:28;;;;;;;10.73;4.05;;;24.30;53.70;;;;;;5052254;28;20463;-41
2023/07/19 00:11:54;;;;;;;14.88;4.60;;;24.30;53.90;;;;;;5034634;28;20029;-40
2023/07/19 00:14:19;;;;;;;9.32;3.75;;;24.30;53.10;;;;;;5052351;28;20373;-40
2023/07/19 00:16:46;;;;;;;9.60;3.83;;;24.30;53.20;;;;;;5052304;28;20028;-40
2023/07/19 00:19:12;;;;;;;10.27;3.78;;;24.30;53.20;;;;;;5052209;28;20434;-40
2023/07/19 00:21:37;;;;;;;8.85;4.22;;;24.30;53.30;;;;;;5052155;28;20108;-40
2023/07/19 00:24:03;;;;;;;14.20;3.58;;;24.30;53.20;;;;;;5034503;28;20079;-40
2023/07/19 00:26:29;;;;;;;7.60;3.47;;;24.30;53.20;;;;;;5034289;28;20484;-42
2023/07/19 00:28:55;;;;;;;11.82;4.53;;;24.30;53.40;;;;;;5034065;28;20021;-40
2023/07/19 00:31:21;;;;;;;8.95;3.67;;;24.30;53.70;;;;;;5034267;28;20028;-40
2023/07/19 00:33:49;;;;;;;9.45;4.38;;;24.30;53.20;;;;;;5052006;28;20175;-43
2023/07/19 00:36:14;;;;;;;11.95;3.58;;;24.30;53.30;;;;;;5034047;28;20540;-40
2023/07/19 00:38:40;;;;;;;9.85;3.85;;;24.30;53.20;;;;;;5051829;28;20071;-40
2023/07/19 00:41:07;;;;;;;8.10;3.90;;;24.30;53.40;;;;;;5033991;28;20435;-40
2023/07/19 00:43:33;;;;;;;12.23;3.45;;;24.40;53.30;;;;;;5051815;28;20021;-40
2023/07/19 00:45:59;;;;;;;12.18;3.78;;;24.30;53.30;;;;;;5017632;28;20435;-40
2023/07/19 00:48:26;;;;;;;10.02;3.35;;;24.30;53.80;;;;;;5051439;28;20055;-40
2023/07/19 00:50:53;;;;;;;10.35;3.80;;;24.30;53.80;;;;;;5051718;28;20122;-40
2023/07/19 00:53:21;;;;;;;9.85;3.70;;;24.30;53.70;;;;;;5033898;28;20044;-40
2023/07/19 00:55:49;;;;;;;8.02;3.50;;;24.30;53.70;;;;;;5051452;28;20033;-40
2023/07/19 00:58:17;;;;;;;19.00;3.97;;;24.30;53.80;;;;;;5051689;28;20043;-41
2023/07/19 01:00:44;;;;;;;11.88;3.60;;;24.30;53.60;;;;;;5051378;28;20106;-41
2023/07/19 01:03:10;;;;;;;7.25;3.33;;;24.30;53.30;;;;;;5051362;28;20029;-40
2023/07/19 01:05:36;;;;;;;9.48;3.67;;;24.30;53.60;;;;;;5051495;28;20538;-43
2023/07/19 01:08:11;;;;;;;8.20;3.50;;;24.30;53.50;;;;;;5051478;28;20104;-40
2023/07/19 01:10:37;;;;;;;6.45;2.95;;;24.30;53.30;;;;;;5051316;28;20079;-40
2023/07/19 01:13:04;;;;;;;6.38;3.25;;;24.30;53.20;;;;;;5033708;28;20447;-40
2023/07/19 01:15:30;;;;;;;8.27;3.50;;;24.30;53.00;;;;;;5051244;28;20029;-44
2023/07/19 01:17:56;;;;;;;11.75;3.40;;;24.30;53.00;;;;;;5051405;28;20107;-41
2023/07/19 01:20:22;;;;;;;8.38;3.30;;;24.30;53.10;;;;;;5051087;28;20108;-40
2023/07/19 01:22:47;;;;;;;7.47;3.35;;;24.30;53.00;;;;;;5033665;28;20400;-40
2023/07/19 01:25:13;;;;;;;5.72;3.20;;;24.30;53.10;;;;;;5051289;28;20021;-40
2023/07/19 01:27:40;;;;;;;8.20;3.35;;;24.30;52.90;;;;;;5051305;28;20108;-42
2023/07/19 01:30:07;;;;;;;7.03;3.08;;;24.30;53.00;;;;;;5050992;28;20029;-41
2023/07/19 01:32:33;;;;;;;8.02;2.80;;;24.30;52.90;;;;;;5051271;28;20033;-40
2023/07/19 01:34:59;;;;;;;8.52;3.13;;;24.30;52.80;;;;;;5033427;28;20381;-40
2023/07/19 01:37:27;;;;;;;7.57;3.15;;;24.30;52.90;;;;;;5051165;28;20077;-40
2023/07/19 01:39:52;;;;;;;7.10;3.63;;;24.30;52.90;;;;;;5050887;28;20033;-40
2023/07/19 01:42:18;;;;;;;7.82;3.17;;;24.30;52.80;;;;;;5051470;28;20503;-40
2023/07/19 01:44:44;;;;;;;8.10;2.90;;;24.30;52.90;;;;;;5051095;28;20036;-40
2023/07/19 01:47:10;;;;;;;4.47;2.65;;;24.20;53.00;;;;;;5051121;28;20040;-41
2023/07/19 01:49:38;;;;;;;9.20;2.92;;;24.30;53.00;;;;;;5057922;28;20078;-41
2023/07/19 01:52:04;;;;;;;5.88;2.80;;;24.20;52.80;;;;;;5071133;28;20553;-40
2023/07/19 01:54:30;;;;;;;5.18;2.80;;;24.20;52.90;;;;;;5053269;28;20020;-41
2023/07/19 01:56:56;;;;;;;5.57;2.97;;;24.20;52.70;;;;;;5070985;28;20143;-40
2023/07/19 01:59:22;;;;;;;6.63;2.85;;;24.30;52.60;;;;;;5052949;28;20435;-42
2023/07/19 02:01:48;;;;;;;7.07;2.80;;;24.20;52.80;;;;;;5036590;28;20054;-40
2023/07/19 02:04:13;;;;;;;4.97;2.75;;;24.20;52.70;;;;;;5071024;28;20025;-41
2023/07/19 02:06:40;;;;;;;6.05;2.95;;;24.20;52.70;;;;;;5070773;28;20031;-43
2023/07/19 02:09:05;;;;;;;7.13;2.67;;;24.20;52.70;;;;;;5070714;28;20021;-40
2023/07/19 02:11:34;;;;;;;4.35;2.58;;;24.20;52.70;;;;;;5070911;28;20024;-40
2023/07/19 02:14:00;;;;;;;6.53;2.65;;;24.20;52.40;;;;;;5037415;28;20039;-44
2023/07/19 02:16:26;;;;;;;6.10;2.60;;;24.20;52.60;;;;;;5074556;28;20029;-41
2023/07/19 02:18:51;;;;;;;5.43;2.50;;;24.20;52.70;;;;;;5074358;28;20028;-40
2023/07/19 02:21:17;;;;;;;5.15;2.70;;;24.20;52.50;;;;;;5074503;28;20029;-40
2023/07/19 02:23:43;;;;;;;7.95;3.20;;;24.20;52.30;;;;;;5056756;28;20070;-40
2023/07/19 02:26:09;;;;;;;6.05;2.50;;;24.20;52.60;;;;;;5074384;28;20120;-40
2023/07/19 02:28:37;;;;;;;6.35;2.80;;;24.20;52.60;;;;;;5074061;28;20028;-40
2023/07/19 02:31:03;;;;;;;5.47;2.67;;;24.20;52.50;;;;;;5056548;28;20111;-40
2023/07/19 02:33:29;;;;;;;3.58;2.10;;;24.20;52.50;;;;;;5056468;28;20060;-42
2023/07/19 02:35:56;;;;;;;6.20;2.40;;;24.20;52.40;;;;;;5074262;28;20060;-40
2023/07/19 02:38:23;;;;;;;4.88;2.15;;;24.20;52.40;;;;;;5056345;28;20059;-40
2023/07/19 02:40:50;;;;;;;6.43;2.60;;;24.20;52.50;;;;;;5056148;28;20052;-42
2023/07/19 02:43:16;;;;;;;4.85;2.42;;;24.20;52.40;;;;;;5074285;28;20082;-41
2023/07/19 02:45:43;;;;;;;3.72;2.30;;;24.20;52.40;;;;;;5074031;28;20472;-41
2023/07/19 02:48:08;;;;;;;5.68;2.35;;;24.20;52.40;;;;;;5073995;28;20050;-40
2023/07/19 02:50:35;;;;;;;7.55;2.47;;;24.20;52.10;;;;;;5055946;28;20036;-44
2023/07/19 02:53:01;;;;;;;5.82;2.83;;;24.20;52.20;;;;;;5056136;28;20028;-43
2023/07/19 02:55:26;;;;;;;4.93;2.70;;;24.20;51.90;;;;;;5055937;28;20071;-41
2023/07/19 02:57:52;;;;;;;6.60;2.30;;;24.20;52.00;;;;;;5074127;28;20029;-47
2023/07/19 03:00:18;;;;;;;5.15;2.20;;;24.20;51.90;;;;;;5055717;28;20081;-46
2023/07/19 03:02:46;;;;;;;5.25;2.10;;;24.20;52.00;;;;;;5073879;28;20032;-42
2023/07/19 03:05:12;;;;;;;5.03;2.40;;;24.20;52.00;;;;;;5056074;28;20032;-47
2023/07/19 03:07:38;;;;;;;4.30;2.25;;;24.20;51.80;;;;;;5073841;28;20045;-45
2023/07/19 03:10:04;;;;;;;7.57;2.92;;;24.20;51.80;;;;;;5073452;28;20028;-45
2023/07/19 03:12:30;;;;;;;5.20;2.72;;;24.20;51.70;;;;;;5073760;28;20036;-45
2023/07/19 03:14:56;;;;;;;3.80;2.20;;;24.20;51.80;;;;;;5055734;28;20036;-44
2023/07/19 03:17:21;;;;;;;6.15;2.40;;;24.20;51.80;;;;;;5073514;28;20085;-43
2023/07/19 03:19:47;;;;;;;4.43;2.30;;;24.20;51.80;;;;;;5073326;28;20500;-45
2023/07/19 03:22:14;;;;;;;3.85;2.10;;;24.20;51.70;;;;;;5055525;28;20028;-41
2023/07/19 03:24:39;;;;;;;4.07;2.33;;;24.20;51.70;;;;;;5055478;28;20043;-43
2023/07/19 03:27:05;;;;;;;4.32;2.20;;;24.20;51.60;;;;;;5072890;28;20051;-43
2023/07/19 03:29:31;;;;;;;7.13;2.40;;;24.20;51.50;;;;;;5073008;28;20464;-44
2023/07/19 03:31:57;;;;;;;6.15;2.47;;;24.20;51.60;;;;;;5073147;28;20107;-44
2023/07/19 03:34:23;;;;;;;7.00;2.50;;;24.20;51.70;;;;;;5055451;28;20033;-46
2023/07/19 03:36:49;;;;;;;6.05;2.53;;;24.20;51.60;;;;;;5055190;28;20033;-43
2023/07/19 03:39:15;;;;;;;4.95;2.17;;;24.20;51.60;;;;;;5072810;28;20032;-43
2023/07/19 03:41:41;;;;;;;4.32;2.08;;;24.20;51.50;;;;;;5055189;28;20032;-45
2023/07/19 03:44:08;;;;;;;5.90;2.25;;;24.20;51.50;;;;;;5055233;28;20029;-43
2023/07/19 03:46:34;;;;;;;4.80;2.20;;;24.20;51.60;;;;;;5055077;28;20037;-45
2023/07/19 03:49:00;;;;;;;4.05;2.10;;;24.20;51.50;;;;;;5054816;28;20029;-46
2023/07/19 03:51:26;;;;;;;6.85;2.47;;;24.20;51.70;;;;;;5055052;28;20036;-43
2023/07/19 03:53:53;;;;;;;4.95;2.47;;;24.20;51.80;;;;;;5055014;28;20031;-46
2023/07/19 03:56:21;;;;;;;3.78;2.30;;;24.20;52.30;;;;;;5054663;28;20036;-42
2023/07/19 03:58:49;;;;;;;3.47;2.10;;;24.20;51.70;;;;;;5054590;28;20029;-45
2023/07/19 04:01:15;;;;;;;3.38;2.13;;;24.20;51.70;;;;;;5054653;28;20039;-45
2023/07/19 04:03:41;;;;;;;4.93;2.42;;;24.20;51.60;;;;;;5054766;28;20032;-48
2023/07/19 04:06:07;;;;;;;4.93;2.75;;;24.20;51.80;;;;;;5072740;28;20066;-43
2023/07/19 04:08:34;;;;;;;4.53;2.20;;;24.20;51.70;;;;;;5054291;28;20029;-45
2023/07/19 04:11:00;;;;;;;8.73;2.38;;;24.20;51.60;;;;;;5054528;28;20119;-43
2023/07/19 04:13:27;;;;;;;3.45;2.20;;;24.20;51.50;;;;;;5072349;28;20118;-46
2023/07/19 04:15:53;;;;;;;5.50;2.60;;;24.20;51.60;;;;;;5054505;28;20044;-45
2023/07/19 04:18:21;;;;;;;5.35;2.15;;;24.20;51.50;;;;;;5054479;28;20032;-43
2023/07/19 04:20:54;;;;;;;3.33;1.88;;;24.20;51.50;;;;;;5054155;28;20035;-43
2023/07/19 04:23:20;;;;;;;3.63;2.20;;;24.20;51.30;;;;;;5054389;28;20035;-41
2023/07/19 04:25:46;;;;;;;6.00;2.40;;;24.20;51.70;;;;;;5054288;28;20017;-47
2023/07/19 04:28:12;;;;;;;4.60;2.28;;;24.20;51.60;;;;;;5054262;28;20377;-42
2023/07/19 04:30:38;;;;;;;3.60;2.25;;;24.20;51.60;;;;;;5054022;28;20495;-45
2023/07/19 04:33:04;;;;;;;6.55;2.65;;;24.20;51.60;;;;;;5054259;28;20036;-44
2023/07/19 04:35:30;;;;;;;5.05;2.42;;;24.20;51.60;;;;;;5054148;28;20047;-43
2023/07/19 04:37:56;;;;;;;4.97;2.13;;;24.20;51.60;;;;;;5071208;28;20479;-49
2023/07/19 04:40:22;;;;;;;4.20;2.33;;;24.20;51.20;;;;;;5053750;28;20116;-46
2023/07/19 04:42:49;;;;;;;3.15;2.10;;;24.20;51.40;;;;;;5071861;28;20131;-46
2023/07/19 04:45:15;;;;;;;5.03;2.40;;;24.10;51.40;;;;;;5054031;28;20020;-43
2023/07/19 04:47:42;;;;;;;4.82;2.30;;;24.20;51.40;;;;;;5054202;28;20081;-42
2023/07/19 04:50:09;;;;;;;4.68;2.20;;;24.10;51.40;;;;;;5053852;28;20103;-41
2023/07/19 04:52:37;;;;;;;4.00;2.20;;;24.20;51.50;;;;;;5053981;28;20056;-42
2023/07/19 04:55:04;;;;;;;4.00;2.10;;;24.20;51.40;;;;;;5077782;22;20507;-49
2023/07/19 04:57:32;;;;;;;4.57;1.95;;;24.10;51.20;;;;;;5066702;28;20041;-50
2023/07/19 04:59:58;;;;;;;3.70;2.13;;;24.20;51.40;;;;;;5050921;28;20297;-50
2023/07/19 05:02:23;;;;;;;6.03;2.30;;;24.20;51.50;;;;;;5033893;28;20388;-48
2023/07/19 05:04:49;;;;;;;5.40;2.30;;;24.20;51.30;;;;;;5051583;28;20395;-45
2023/07/19 05:07:16;;;;;;;4.55;2.40;;;24.20;51.40;;;;;;5033637;28;20029;-44
2023/07/19 05:09:42;;;;;;;5.57;2.20;;;24.20;51.20;;;;;;5033543;28;20487;-46
2023/07/19 05:12:09;;;;;;;4.90;2.10;;;24.20;51.20;;;;;;5033905;28;20037;-45
2023/07/19 05:14:35;;;;;;;6.45;2.20;;;24.20;50.90;;;;;;5033786;28;20039;-48
2023/07/19 05:17:01;;;;;;;4.63;2.22;;;24.20;51.10;;;;;;5033575;28;20029;-48
2023/07/19 05:19:27;;;;;;;5.57;2.17;;;24.20;51.00;;;;;;5033352;28;20104;-46
2023/07/19 05:21:52;;;;;;;6.78;2.50;;;24.20;51.00;;;;;;5033473;28;20551;-45
2023/07/19 05:24:19;;;;;;;8.05;2.42;;;24.20;51.00;;;;;;5033508;28;20492;-45
2023/07/19 05:26:46;;;;;;;5.15;2.40;;;24.20;50.70;;;;;;5033554;28;20047;-50
2023/07/19 05:29:11;;;;;;;4.50;2.00;;;24.20;51.00;;;;;;5051218;28;20564;-45
2023/07/19 05:31:37;;;;;;;6.35;2.15;;;24.20;51.20;;;;;;5042763;28;20107;-48
2023/07/19 05:34:03;;;;;;;5.35;2.20;;;24.20;50.80;;;;;;5040539;28;20036;-46
2023/07/19 05:36:29;;;;;;;7.15;2.30;;;24.20;50.20;;;;;;5048259;28;20410;-47
2023/07/19 05:38:55;;;;;;;8.82;2.50;;;24.20;49.00;;;;;;5046853;28;20035;-49
2023/07/19 05:41:21;;;;;;;6.38;2.45;;;24.00;47.90;;;;;;5045043;28;20047;-46
2023/07/19 05:43:47;;;;;;;8.48;2.50;;;24.00;48.00;;;;;;5042605;28;20098;-45
2023/07/19 05:46:12;;;;;;;7.30;2.13;;;24.00;47.00;;;;;;5045891;28;20028;-46
2023/07/19 05:48:38;;;;;;;8.25;2.15;;;23.90;46.60;;;;;;5046098;28;20029;-48
2023/07/19 05:51:06;;;;;;;8.18;2.05;;;23.90;46.40;;;;;;5032590;28;20115;-46
2023/07/19 05:53:32;;;;;;;9.65;2.80;;;23.80;46.30;;;;;;5044628;28;20112;-53
2023/07/19 05:55:57;;;;;;;6.72;2.28;;;23.80;46.30;;;;;;5028044;28;20459;-46
2023/07/19 05:58:23;;;;;;;5.85;2.17;;;23.80;46.50;;;;;;5049919;28;20071;-49
2023/07/19 06:00:49;;;;;;;9.68;2.53;;;23.80;46.30;;;;;;5047579;28;20111;-46
2023/07/19 06:03:16;;;;;;;6.18;1.90;;;23.80;46.10;;;;;;5050114;28;20108;-47
2023/07/19 06:05:45;;;;;;;11.70;2.10;;;23.80;45.60;;;;;;5050489;28;20067;-50
2023/07/19 06:08:11;;;;;;;12.00;2.00;;;23.80;45.50;;;;;;5049002;28;20457;-50
2023/07/19 06:10:38;;;;;;;8.93;2.35;;;23.80;46.70;;;;;;5046746;28;20638;-48
2023/07/19 06:13:04;;;;;;;6.18;2.38;;;23.80;46.00;;;;;;5047271;28;20072;-47
2023/07/19 06:15:33;;;;;;;13.30;2.67;;;23.80;45.80;;;;;;5049478;28;20029;-50
2023/07/19 06:18:00;;;;;;;7.20;2.03;;;23.80;45.80;;;;;;5049200;28;20120;-51
2023/07/19 06:20:26;;;;;;;10.52;2.40;;;23.80;46.30;;;;;;5049465;28;20408;-49
2023/07/19 06:22:51;;;;;;;8.15;2.35;;;23.70;45.60;;;;;;5047872;28;20033;-49
2023/07/19 06:25:17;;;;;;;6.95;2.30;;;23.80;46.00;;;;;;5049778;28;20030;-50
2023/07/19 06:27:43;;;;;;;7.70;2.20;;;23.80;45.60;;;;;;5046455;28;20511;-51
2023/07/19 06:30:10;;;;;;;11.88;2.47;;;23.70;45.70;;;;;;5048675;28;20028;-50
2023/07/19 06:32:39;;;;;;;11.45;2.53;;;23.70;45.80;;;;;;5049208;28;20111;-50
2023/07/19 06:35:07;;;;;;;5.17;2.33;;;23.70;45.80;;;;;;5041298;28;20051;-47
2023/07/19 06:37:33;;;;;;;8.38;2.10;;;23.70;45.80;;;;;;5047892;28;20128;-51
2023/07/19 06:40:02;;;;;;;6.90;2.58;;;23.70;45.70;;;;;;5048784;28;20056;-49
2023/07/19 06:42:33;;;;;;;6.57;2.15;;;23.70;45.60;;;;;;5046598;28;20060;-47
2023/07/19 06:44:59;;;;;;;6.85;2.58;;;23.70;45.90;;;;;;5049202;28;20537;-47
2023/07/19 06:47:29;;;;;;;10.27;1.88;;;23.80;46.80;;;;;;5047604;28;20519;-48
2023/07/19 06:49:56;;;;;;;7.93;2.13;;;23.80;46.10;;;;;;5048331;28;20033;-52
2023/07/19 06:52:23;;;;;;;9.85;2.35;;;23.80;46.60;;;;;;5048156;28;20524;-47
2023/07/19 06:54:49;;;;;;;22.67;2.45;;;23.80;46.20;;;;;;5048421;28;20381;-51
2023/07/19 06:57:15;;;;;;;11.77;2.20;;;23.80;46.00;;;;;;5047333;28;20044;-47
2023/07/19 06:59:40;;;;;;;10.18;1.95;;;23.80;46.50;;;;;;5048148;28;20036;-48
2023/07/19 07:02:06;;;;;;;7.47;2.40;;;23.80;47.00;;;;;;5047174;28;20047;-49
2023/07/19 07:04:32;;;;;;;8.75;2.30;;;23.80;47.10;;;;;;5045878;28;20102;-47
2023/07/19 07:06:58;;;;;;;7.47;2.13;;;23.80;46.10;;;;;;5043465;28;20029;-45
2023/07/19 07:09:24;;;;;;;7.85;2.33;;;23.80;47.80;;;;;;5045901;28;20028;-47
2023/07/19 07:11:49;;;;;;;7.13;2.50;;;23.80;47.10;;;;;;5048474;28;20404;-46
2023/07/19 07:14:15;;;;;;;4.60;2.38;;;23.80;47.20;;;;;;5048461;28;20029;-46
2023/07/19 07:16:41;;;;;;;6.53;2.33;;;23.90;46.90;;;;;;5047516;28;20033;-51
2023/07/19 07:19:07;;;;;;;9.55;2.55;;;23.80;47.60;;;;;;5041463;28;20130;-49
2023/07/19 07:21:33;;;;;;;24.25;3.20;;;23.90;46.70;;;;;;5048088;28;20029;-48
2023/07/19 07:23:59;;;;;;;15.40;3.38;;;23.90;46.80;;;;;;5046867;28;20114;-49
2023/07/19 07:26:25;;;;;;;12.18;3.22;;;23.90;47.10;;;;;;5047496;28;20039;-51
2023/07/19 07:28:51;;;;;;;19.52;3.53;;;23.90;47.10;;;;;;5045904;28;20508;-45
2023/07/19 07:31:17;;;;;;;12.63;3.30;;;23.90;47.30;;;;;;5044247;28;20032;-46
2023/07/19 07:33:43;;;;;;;14.10;3.10;;;24.00;47.30;;;;;;5045497;28;20151;-51
2023/07/19 07:36:08;;;;;;;34.83;4.03;;;24.10;47.40;;;;;;5041533;28;20623;-45
2023/07/19 07:38:34;;;;;;;31.48;4.38;;;24.20;49.00;;;;;;5046396;28;20040;-52
2023/07/19 07:41:01;;;;;;;14.88;3.47;;;24.20;48.10;;;;;;5044047;28;20419;-51
2023/07/19 07:43:29;;;;;;;15.70;3.15;;;24.30;47.40;;;;;;5045947;28;20039;-48
2023/07/19 07:45:55;;;;;;;18.02;3.20;;;24.30;47.40;;;;;;5047191;28;20610;-47
2023/07/19 07:48:22;;;;;;;10.05;3.03;;;24.30;47.60;;;;;;5046877;28;20025;-47
2023/07/19 07:50:51;;;;;;;9.88;3.03;;;24.30;47.60;;;;;;5046529;28;20462;-52
2023/07/19 07:53:18;;;;;;;11.60;3.63;;;24.30;47.70;;;;;;5045152;28;20060;-47
2023/07/19 07:55:44;;;;;;;13.80;3.10;;;24.30;47.80;;;;;;5044481;28;20034;-50
2023/07/19 07:58:10;;;;;;;9.27;3.17;;;24.30;47.90;;;;;;5043926;28;20029;-47
2023/07/19 08:00:37;;;;;;;9.82;3.30;;;24.30;48.00;;;;;;5046569;28;20083;-50
2023/07/19 08:03:03;;;;;;;9.98;3.28;;;24.40;48.20;;;;;;5047360;28;20116;-45
2023/07/19 08:05:31;;;;;;;10.20;2.67;;;24.30;48.30;;;;;;5046541;28;20116;-49
2023/07/19 08:07:57;;;;;;;9.68;3.17;;;24.30;49.00;;;;;;5044942;28;20029;-47
2023/07/19 08:10:23;;;;;;;14.13;3.75;;;24.30;48.60;;;;;;5027858;28;20098;-46
2023/07/19 08:12:49;;;;;;;8.13;3.10;;;24.30;48.70;;;;;;5040004;28;20116;-46
2023/07/19 08:15:15;;;;;;;8.55;2.80;;;24.30;49.10;;;;;;5047085;28;20079;-46
2023/07/19 08:17:41;;;;;;;10.57;3.30;;;24.30;49.00;;;;;;5047096;28;20302;-51
2023/07/19 08:20:09;;;;;;;9.30;3.08;;;24.30;49.20;;;;;;5046806;28;20029;-44
2023/07/19 08:22:37;;;;;;;14.65;3.60;;;24.30;49.20;;;;;;5046251;28;20035;-47
2023/07/19 08:25:05;;;;;;;6.03;2.72;;;24.30;49.30;;;;;;5047024;28;20514;-45
2023/07/19 08:27:32;;;;;;;6.32;3.03;;;24.30;49.40;;;;;;5045799;28;20036;-46
2023/07/19 08:30:00;;;;;;;10.20;3.25;;;24.30;49.50;;;;;;5046168;28;20021;-46
2023/07/19 08:32:26;;;;;;;7.22;2.88;;;24.30;49.40;;;;;;5028526;28;20550;-50
2023/07/19 08:34:52;;;;;;;9.55;2.92;;;24.30;49.60;;;;;;5027370;28;20040;-45
2023/07/19 08:37:18;;;;;;;8.00;3.17;;;24.30;49.60;;;;;;5044296;28;20066;-47
2023/07/19 08:39:44;;;;;;;8.85;3.25;;;24.30;49.60;;;;;;5046795;28;20094;-51
2023/07/19 08:42:10;;;;;;;10.32;3.28;;;24.30;49.60;;;;;;5037226;28;20472;-51
2023/07/19 08:44:36;;;;;;;10.05;3.25;;;24.30;49.80;;;;;;5039632;28;20078;-50
2023/07/19 08:47:04;;;;;;;9.77;3.47;;;24.30;49.90;;;;;;5047025;28;20419;-45
2023/07/19 08:49:33;;;;;;;9.70;3.30;;;24.30;49.90;;;;;;5046573;28;20510;-48
2023/07/19 08:52:02;;;;;;;7.25;3.75;;;24.30;49.80;;;;;;5046084;28;20492;-45
2023/07/19 08:54:28;;;;;;;10.40;3.47;;;24.30;49.90;;;;;;5027829;28;20042;-47
2023/07/19 08:56:54;;;;;;;10.82;3.50;;;24.30;50.00;;;;;;5047038;28;20029;-48
2023/07/19 08:59:20;;;;;;;8.20;3.90;;;24.30;50.00;;;;;;5045430;28;20526;-49
2023/07/19 09:01:46;;;;;;;8.88;3.40;;;24.30;50.00;;;;;;5046176;28;20037;-48
2023/07/19 09:04:12;;;;;;;7.97;3.28;;;24.30;50.10;;;;;;5046465;28;20036;-48
2023/07/19 09:06:40;;;;;;;7.88;3.80;;;24.30;50.30;;;;;;5041939;28;20076;-50
2023/07/19 09:09:09;;;;;;;28.48;4.30;;;24.30;50.40;;;;;;5045417;28;20032;-46
2023/07/19 09:11:34;;;;;;;12.93;3.95;;;24.30;50.80;;;;;;5046481;28;20499;-47
2023/07/19 09:14:00;;;;;;;13.85;4.72;;;24.30;50.90;;;;;;5045550;28;20115;-48
2023/07/19 09:16:29;;;;;;;10.18;3.70;;;24.30;51.30;;;;;;5046383;28;20116;-45
2023/07/19 09:18:57;;;;;;;13.35;3.80;;;24.40;50.80;;;;;;5046364;28;20055;-51
2023/07/19 09:21:39;;;;;;;14.57;4.05;;;24.40;50.80;;;;;;5046408;28;20029;-47
2023/07/19 09:24:07;;;;;;;10.98;3.78;;;24.40;51.00;;;;;;5045412;28;20072;-49
2023/07/19 09:26:53;;;;;;;14.65;3.80;;;24.40;51.10;;;;;;5046456;28;20032;-49
2023/07/19 09:29:20;;;;;;;20.75;4.40;;;24.50;51.10;;;;;;5046108;28;20036;-47
2023/07/19 09:31:53;;;;;;;13.35;3.83;;;24.50;51.10;;;;;;5045088;28;20029;-51
2023/07/19 09:34:25;;;;;;;13.20;4.00;;;24.50;51.00;;;;;;5046101;28;20035;-47
2023/07/19 09:36:52;;;;;;;17.15;4.32;;;24.50;51.20;;;;;;5046154;28;20689;-48
2023/07/19 09:39:17;;;;;;;14.50;3.67;;;24.50;51.30;;;;;;5045846;28;20108;-51
2023/07/19 09:41:47;;;;;;;13.63;3.78;;;24.50;51.50;;;;;;5046702;28;20116;-50
2023/07/19 09:44:15;;;;;;;;;;;24.50;51.60;;;;;;5039069;28;20037;-52
2023/07/19 09:46:42;;;;;;;10.05;3.88;;;24.50;51.70;;;;;;5044638;28;20007;-50
2023/07/19 09:49:08;;;;;;;13.48;4.47;;;24.50;51.70;;;;;;5043213;28;20029;-47
2023/07/19 09:51:35;;;;;;;16.73;4.20;;;24.40;51.80;;;;;;5046557;28;20079;-49
2023/07/19 09:54:06;;;;;;;17.23;4.05;;;24.40;52.00;;;;;;5046406;28;20112;-51
2023/07/19 09:56:33;;;;;;;11.60;3.63;;;24.40;52.00;;;;;;5045753;28;20508;-52
2023/07/19 09:58:59;;;;;;;12.60;3.95;;;24.50;52.10;;;;;;5039548;28;20104;-50
2023/07/19 10:01:25;;;;;;;12.50;3.35;;;24.50;52.10;;;;;;5026895;28;20561;-50
2023/07/19 10:03:51;;;;;;;12.88;3.80;;;24.50;52.20;;;;;;5045927;28;20031;-53
2023/07/19 10:06:17;;;;;;;11.20;3.60;;;24.50;52.70;;;;;;5045072;28;20037;-50
2023/07/19 10:08:43;;;;;;;13.10;4.20;;;24.50;52.20;;;;;;5039095;28;20029;-53
2023/07/19 10:11:21;;;;;;;10.93;4.03;;;24.50;52.30;;;;;;5046327;28;20082;-48
2023/07/19 10:13:57;;;;;;;11.27;3.63;;;24.40;52.30;;;;;;5045281;28;20127;-49
2023/07/19 10:16:26;;;;;;;10.90;3.58;;;24.40;52.30;;;;;;5028200;28;20040;-51
2023/07/19 10:19:11;;;;;;;13.45;4.07;;;24.40;52.30;;;;;;5043167;28;20451;-53
2023/07/19 10:21:37;;;;;;;12.60;3.40;;;24.40;52.40;;;;;;5044161;28;20117;-52
2023/07/19 10:24:07;;;;;;;20.85;3.97;;;24.40;52.30;;;;;;5044335;28;20433;-50
2023/07/19 10:26:36;;;;;;;12.90;3.30;;;24.40;52.50;;;;;;5026644;28;20024;-50
2023/07/19 10:29:04;;;;;;;13.50;4.15;;;24.40;52.50;;;;;;5041662;28;20029;-51
2023/07/19 10:31:31;;;;;;;9.38;3.33;;;24.40;52.40;;;;;;5043177;28;20130;-51
2023/07/19 10:33:57;;;;;;;12.25;3.55;;;24.40;52.40;;;;;;5042289;28;20393;-51
2023/07/19 10:36:23;;;;;;;10.57;3.60;;;24.40;52.50;;;;;;5047695;28;20048;-53
2023/07/19 10:38:49;;;;;;;8.02;2.85;;;24.40;52.60;;;;;;5047268;28;20033;-51
2023/07/19 10:41:17;;;;;;;11.38;3.63;;;24.40;52.60;;;;;;5049525;28;20582;-51
2023/07/19 10:43:43;;;;;;;6.20;3.00;;;24.40;52.60;;;;;;5049574;28;20672;-51
2023/07/19 10:46:10;;;;;;;8.52;3.63;;;24.40;52.60;;;;;;5048364;28;20032;-48
2023/07/19 10:48:37;;;;;;;13.93;3.72;;;24.40;52.60;;;;;;5028368;28;20023;-52
2023/07/19 10:51:05;;;;;;;10.35;3.40;;;24.50;52.60;;;;;;5048969;28;20372;-49
2023/07/19 10:53:41;;;;;;;10.15;3.13;;;24.50;52.60;;;;;;5047020;28;20029;-53
2023/07/19 10:56:07;;;;;;;7.93;3.22;;;24.50;52.70;;;;;;5045875;28;20040;-52
2023/07/19 10:58:32;;;;;;;9.60;3.45;;;24.40;52.60;;;;;;5048549;28;20059;-52
2023/07/19 11:00:58;;;;;;;8.07;3.30;;;24.40;52.60;;;;;;5048921;28;20060;-51
2023/07/19 11:03:26;;;;;;;11.75;3.60;;;24.40;52.70;;;;;;5045230;28;20022;-51
2023/07/19 11:05:53;;;;;;;12.90;3.55;;;24.40;52.60;;;;;;5048532;28;20479;-52
2023/07/19 11:08:27;;;;;;;7.90;3.28;;;24.50;52.70;;;;;;5042156;28;20577;-48
2023/07/19 11:10:57;;;;;;;9.93;3.28;;;24.40;52.70;;;;;;5048328;28;20033;-51
2023/07/19 11:13:25;;;;;;;12.32;3.50;;;24.50;52.60;;;;;;5013824;28;20025;-53
2023/07/19 11:15:57;;;;;;;12.02;3.20;;;24.40;52.70;;;;;;5048513;28;20577;-51
2023/07/19 11:18:27;;;;;;;7.65;2.90;;;24.50;52.70;;;;;;5047455;28;20481;-51
2023/07/19 11:20:57;;;;;;;9.85;3.00;;;24.50;52.80;;;;;;5045422;28;20042;-50
2023/07/19 11:23:26;;;;;;;;;;;24.50;53.30;;;;;;5039964;28;20401;-48
2023/07/19 11:26:06;;;;;;;7.00;2.92;;;24.50;52.70;;;;;;5048128;28;19913;-46
2023/07/19 11:28:55;;;;;;;5.88;2.85;;;24.50;52.80;;;;;;5047781;28;20531;-47
2023/07/19 11:31:31;;;;;;;7.75;3.40;;;24.50;52.70;;;;;;5046512;28;20048;-47
2023/07/19 11:34:09;;;;;;;9.98;2.90;;;24.50;52.80;;;;;;5048044;28;20037;-52
2023/07/19 11:36:40;;;;;;;12.73;3.03;;;24.50;52.80;;;;;;5048245;28;20052;-50
2023/07/19 11:39:15;;;;;;;8.60;2.78;;;24.50;52.80;;;;;;5047050;28;20033;-48
2023/07/19 11:41:46;;;;;;;9.50;2.97;;;24.50;52.80;;;;;;5045201;28;20028;-49
2023/07/19 11:44:16;;;;;;;11.77;3.00;;;24.50;52.90;;;;;;5046736;28;20091;-48
2023/07/19 11:46:43;;;;;;;9.43;2.92;;;24.50;52.90;;;;;;5069329;22;20060;-41
2023/07/19 11:49:10;;;;;;;9.75;3.15;;;24.50;52.80;;;;;;5054215;28;20033;-39
2023/07/19 11:51:39;;;;;;;10.13;2.97;;;24.50;52.80;;;;;;5052747;28;20082;-39
2023/07/19 11:54:05;;;;;;;5.18;2.50;;;24.50;52.90;;;;;;5053080;28;20137;-42
2023/07/19 11:56:31;;;;;;;12.90;3.50;;;24.60;52.90;;;;;;5052809;28;20705;-39
2023/07/19 11:58:57;;;;;;;11.43;2.95;;;24.60;53.00;;;;;;5047967;28;20032;-39
2023/07/19 12:01:27;;;;;;;8.63;2.70;;;24.60;53.00;;;;;;5048804;28;20504;-41
2023/07/19 12:03:53;;;;;;;8.80;2.65;;;24.50;53.00;;;;;;5048985;28;20032;-41
2023/07/19 12:06:19;;;;;;;10.13;2.90;;;24.50;53.00;;;;;;5051053;28;20021;-43
2023/07/19 12:08:45;;;;;;;6.78;2.85;;;24.50;53.00;;;;;;5048926;28;20488;-43
2023/07/19 12:11:11;;;;;;;12.32;2.70;;;24.50;53.00;;;;;;5048851;28;20392;-41
2023/07/19 12:13:37;;;;;;;5.85;2.92;;;24.50;53.00;;;;;;5052176;28;20062;-40
2023/07/19 12:16:03;;;;;;;5.25;2.88;;;24.50;53.10;;;;;;5048678;28;20114;-41
2023/07/19 12:18:30;;;;;;;6.53;2.65;;;24.50;53.10;;;;;;5048445;28;20037;-41
2023/07/19 12:20:56;;;;;;;7.25;2.70;;;24.50;53.10;;;;;;5048504;28;20036;-41
2023/07/19 12:23:23;;;;;;;6.32;3.20;;;24.50;53.10;;;;;;5049359;28;20029;-41
2023/07/19 12:25:49;;;;;;;5.63;2.88;;;24.50;53.10;;;;;;5049806;28;20028;-41
2023/07/19 12:28:16;;;;;;;6.90;2.42;;;24.50;53.10;;;;;;5048666;28;20162;-43
2023/07/19 12:30:42;;;;;;;8.88;2.60;;;24.50;53.20;;;;;;5046984;28;20029;-40
2023/07/19 12:33:08;;;;;;;9.15;2.97;;;24.50;53.20;;;;;;5051495;28;20383;-40
2023/07/19 12:35:36;;;;;;;5.95;2.30;;;24.50;53.30;;;;;;5051929;28;20037;-43
2023/07/19 12:38:02;;;;;;;8.50;2.95;;;24.50;53.30;;;;;;5048348;28;20035;-40
2023/07/19 12:40:30;;;;;;;5.55;2.33;;;24.50;53.30;;;;;;5048406;28;20098;-41
2023/07/19 12:42:56;;;;;;;9.23;2.90;;;24.50;53.40;;;;;;5047966;28;20021;-40